ESMS/MMX METAR and TAF weather

Enter ICAO airport designator
Station Type Date Time Source
ESMS METAR 2022/12/05 13:50 UTC NOAA

ESMS 051350Z 08009KT 2800 BR OVC004 04/04 Q1020 REDZ


Station Type Date Time Source
ESMS Decoded METAR 2022/12/05 13:50 UTC NOAA

Malmo / Sturup, Sweden (ESMS) 55-33N 013-22E
Dec 05, 2022 - 08:50 AM EST / 2022.12.05 1350 UTC
Wind: from the E (080 degrees) at 10 MPH (9 KT):0
Visibility: 1 mile(s):0
Sky conditions: overcast
Weather: mist
Temperature: 39 F (4 C)
Dew Point: 39 F (4 C)
Relative Humidity: 100%
Pressure (altimeter): 30.12 in. Hg (1020 hPa)
ob: ESMS 051350Z 08009KT 2800 BR OVC004 04/04 Q1020 REDZ
cycle: 14

Station Type Date Time Source
ESMS TAF 2022/12/05 12:12 UTC NOAA

TAF TAF ESMS 051107Z 0512/0612 09008KT 9000 -RADZ BKN008
TEMPO 0512/0518 2000 RA BR BKN004
TEMPO 0518/0522 1500 RASN BKN002
BECMG 0522/0524 3000 BR BKN012
TEMPO 0600/0609 9000 NSW BKN005
BECMG 0609/0611 9999 NSW

Example: see airport list